createdAt,value
2018-08-06T00:00:07.481Z,16.53
2018-08-06T00:02:35.018Z,16.40
2018-08-06T00:05:02.580Z,16.67
2018-08-06T00:07:30.097Z,17.63
2018-08-06T00:09:57.701Z,16.23
2018-08-06T00:12:25.239Z,16.10
2018-08-06T00:14:52.792Z,16.17
2018-08-06T00:17:20.475Z,16.87
2018-08-06T00:19:48.034Z,16.50
2018-08-06T00:22:15.544Z,15.77
2018-08-06T00:24:43.176Z,14.80
2018-08-06T00:27:10.800Z,17.30
2018-08-06T00:29:38.369Z,15.67
2018-08-06T00:32:06.067Z,17.83
2018-08-06T00:34:33.607Z,15.20
2018-08-06T00:37:01.148Z,16.67
2018-08-06T00:39:28.787Z,15.70
2018-08-06T00:41:56.357Z,16.07
2018-08-06T00:44:23.864Z,15.80
2018-08-06T00:46:51.455Z,15.93
2018-08-06T00:49:19.038Z,15.37
2018-08-06T00:51:46.572Z,17.90
2018-08-06T00:54:14.130Z,16.90
2018-08-06T00:56:41.644Z,16.40
2018-08-06T00:59:09.179Z,16.83
2018-08-06T01:01:36.742Z,16.47
2018-08-06T01:04:04.293Z,17.17
2018-08-06T01:06:31.824Z,17.33
2018-08-06T01:08:59.440Z,15.37
2018-08-06T01:11:26.981Z,15.50
2018-08-06T01:13:54.560Z,16.87
2018-08-06T01:16:22.118Z,15.83
2018-08-06T01:18:49.661Z,15.90
2018-08-06T01:21:17.205Z,16.43
2018-08-06T01:23:44.779Z,16.37
2018-08-06T01:26:12.385Z,14.73
2018-08-06T01:28:39.938Z,15.87
2018-08-06T01:31:07.545Z,16.63
2018-08-06T01:33:35.123Z,16.50
2018-08-06T01:36:02.701Z,15.80
2018-08-06T01:38:30.272Z,16.10
2018-08-06T01:40:57.848Z,16.70
2018-08-06T01:43:25.409Z,16.40
2018-08-06T01:45:52.963Z,16.23
2018-08-06T01:48:20.492Z,15.93
2018-08-06T01:50:48.041Z,17.03
2018-08-06T01:53:15.639Z,15.83
2018-08-06T01:55:43.185Z,16.10
2018-08-06T01:58:10.765Z,16.40
2018-08-06T02:00:38.437Z,16.97
2018-08-06T02:03:06.060Z,15.00
2018-08-06T02:05:33.654Z,16.80
2018-08-06T02:08:01.274Z,15.40
2018-08-06T02:10:28.811Z,16.03
2018-08-06T02:12:56.418Z,15.17
2018-08-06T02:15:23.968Z,15.70
2018-08-06T02:17:51.859Z,17.67
2018-08-06T02:20:19.520Z,17.77
2018-08-06T02:22:47.761Z,15.90
2018-08-06T02:25:15.530Z,15.43
2018-08-06T02:27:43.497Z,15.67
2018-08-06T02:30:14.128Z,17.60
2018-08-06T02:32:42.031Z,15.60
2018-08-06T02:35:11.710Z,16.00
2018-08-06T02:37:39.711Z,16.97
2018-08-06T02:40:08.196Z,17.33
2018-08-06T02:42:35.828Z,17.43
2018-08-06T02:45:03.501Z,17.63
2018-08-06T02:47:31.112Z,17.23
2018-08-06T02:49:58.721Z,17.40
2018-08-06T02:52:26.403Z,18.13
2018-08-06T02:54:54.242Z,15.97
2018-08-06T02:57:21.909Z,16.70
2018-08-06T02:59:49.476Z,17.40
2018-08-06T03:02:17.065Z,16.50
2018-08-06T03:04:44.617Z,15.30
2018-08-06T03:07:12.170Z,15.87
2018-08-06T03:09:39.781Z,18.43
2018-08-06T03:12:07.392Z,19.00
2018-08-06T03:14:34.970Z,18.67
2018-08-06T03:17:02.567Z,18.13
2018-08-06T03:19:30.636Z,18.23
2018-08-06T03:21:58.200Z,16.73
2018-08-06T03:24:25.749Z,18.43
2018-08-06T03:26:53.337Z,18.13
2018-08-06T03:29:20.903Z,17.53
2018-08-06T03:31:48.493Z,17.23
2018-08-06T03:34:16.160Z,18.53
2018-08-06T03:36:43.767Z,17.60
2018-08-06T03:39:11.614Z,17.07
2018-08-06T03:41:39.203Z,15.57
2018-08-06T03:44:07.298Z,17.33
2018-08-06T03:46:35.153Z,19.07
2018-08-06T03:49:02.714Z,17.83
2018-08-06T03:51:30.298Z,17.47
2018-08-06T03:53:57.944Z,17.63
2018-08-06T03:56:25.543Z,19.30
2018-08-06T03:58:53.491Z,19.60
2018-08-06T04:01:21.060Z,18.90
2018-08-06T04:03:48.887Z,18.37
2018-08-06T04:06:16.893Z,17.93
2018-08-06T04:08:44.455Z,17.40
2018-08-06T04:11:12.249Z,17.97
2018-08-06T04:13:39.907Z,17.37
2018-08-06T04:16:07.525Z,17.27
2018-08-06T04:18:35.060Z,16.70
2018-08-06T04:21:02.666Z,17.07
2018-08-06T04:23:30.249Z,17.13
2018-08-06T04:25:57.808Z,16.67
2018-08-06T04:28:25.420Z,17.00
2018-08-06T04:30:52.972Z,17.33
2018-08-06T04:33:20.590Z,18.37
2018-08-06T04:35:48.150Z,19.00
2018-08-06T04:38:15.777Z,18.47
2018-08-06T04:40:43.387Z,17.77
2018-08-06T04:43:10.996Z,19.10
2018-08-06T04:45:38.570Z,18.60
2018-08-06T04:48:06.139Z,18.70
2018-08-06T04:50:33.712Z,19.07
2018-08-06T04:53:01.368Z,18.80
2018-08-06T04:55:28.898Z,17.53
2018-08-06T04:57:56.562Z,19.83
2018-08-06T05:00:24.146Z,20.40
2018-08-06T05:02:51.674Z,19.17
2018-08-06T05:05:19.265Z,19.07
2018-08-06T05:07:46.838Z,20.50
2018-08-06T05:10:14.414Z,21.07
2018-08-06T05:12:42.034Z,20.43
2018-08-06T05:15:09.615Z,20.10
2018-08-06T05:17:37.185Z,21.00
2018-08-06T05:20:05.129Z,20.13
2018-08-06T05:22:32.732Z,20.27
2018-08-06T05:25:00.288Z,19.77
2018-08-06T05:27:27.889Z,21.30
2018-08-06T05:29:55.473Z,22.30
2018-08-06T05:32:23.024Z,21.63
2018-08-06T05:34:50.662Z,22.63
2018-08-06T05:37:18.272Z,23.47
2018-08-06T05:39:45.882Z,25.80
2018-08-06T05:42:13.777Z,22.17
2018-08-06T05:44:41.462Z,21.43
2018-08-06T05:47:09.081Z,23.77
2018-08-06T05:49:36.670Z,20.97
2018-08-06T05:52:04.376Z,21.93
2018-08-06T05:54:38.664Z,21.63
2018-08-06T05:57:06.308Z,20.80
2018-08-06T05:59:33.838Z,19.80
2018-08-06T06:02:01.475Z,19.63
2018-08-06T06:04:29.104Z,21.30
2018-08-06T06:06:56.667Z,21.30
2018-08-06T06:09:24.397Z,20.30
2018-08-06T06:11:52.022Z,17.63
2018-08-06T06:14:19.624Z,18.63
2018-08-06T06:16:47.226Z,17.50
2018-08-06T06:19:14.882Z,18.80
2018-08-06T06:21:42.452Z,17.07
2018-08-06T06:24:10.065Z,18.93
2018-08-06T06:26:37.672Z,19.30
2018-08-06T06:29:05.255Z,19.70
2018-08-06T06:31:32.861Z,17.47
2018-08-06T06:34:00.502Z,17.60
2018-08-06T06:36:28.312Z,19.73
2018-08-06T06:38:55.933Z,18.87
2018-08-06T06:41:23.543Z,25.53
2018-08-06T06:43:51.132Z,19.17
2018-08-06T06:46:18.754Z,19.27
2018-08-06T06:48:46.343Z,18.03
2018-08-06T06:51:13.927Z,17.93
2018-08-06T06:53:41.533Z,18.23
2018-08-06T06:56:09.128Z,17.93
2018-08-06T06:58:36.731Z,19.33
2018-08-06T07:01:04.436Z,21.07
2018-08-06T07:03:32.048Z,22.43
2018-08-06T07:05:59.668Z,19.33
2018-08-06T07:08:27.286Z,19.53
2018-08-06T07:10:54.957Z,19.60
2018-08-06T07:13:22.525Z,19.03
2018-08-06T07:15:50.171Z,20.67
2018-08-06T07:18:17.762Z,19.40
2018-08-06T07:20:45.348Z,22.90
2018-08-06T07:23:12.893Z,22.20
2018-08-06T07:25:40.965Z,19.00
2018-08-06T07:28:08.590Z,21.00
2018-08-06T07:30:36.218Z,19.87
2018-08-06T07:33:03.900Z,19.47
2018-08-06T07:35:31.482Z,19.90
2018-08-06T07:37:59.188Z,21.60
2018-08-06T07:40:26.795Z,19.33
2018-08-06T07:42:54.362Z,19.13
2018-08-06T07:45:21.979Z,18.83
2018-08-06T07:47:49.890Z,18.13
2018-08-06T07:50:18.267Z,17.90
2018-08-06T07:52:45.936Z,20.43
2018-08-06T07:55:13.571Z,21.33
2018-08-06T07:57:49.821Z,18.00
2018-08-06T08:00:20.388Z,17.80
2018-08-06T08:02:51.511Z,16.30
2018-08-06T08:05:34.230Z,19.70
2018-08-06T08:08:06.997Z,17.97
2018-08-06T08:10:35.335Z,15.90
2018-08-06T08:13:02.961Z,16.27
2018-08-06T08:15:30.581Z,16.53
2018-08-06T08:17:58.168Z,17.07
2018-08-06T08:20:26.145Z,17.20
2018-08-06T08:22:53.749Z,16.80
2018-08-06T08:25:22.439Z,16.30
2018-08-06T08:27:50.108Z,19.27
2018-08-06T08:30:18.534Z,16.30
2018-08-06T08:32:46.114Z,18.90
2018-08-06T08:35:14.218Z,17.10
2018-08-06T08:37:41.869Z,17.30
2018-08-06T08:40:14.766Z,18.23
2018-08-06T08:42:42.385Z,16.63
2018-08-06T08:45:11.841Z,15.87
2018-08-06T08:47:39.889Z,16.97
2018-08-06T08:50:09.167Z,17.43
2018-08-06T08:52:36.943Z,16.50
2018-08-06T08:55:05.029Z,16.50
2018-08-06T08:57:32.661Z,16.03
2018-08-06T09:00:00.287Z,18.03
2018-08-06T09:02:27.913Z,16.37
2018-08-06T09:04:55.536Z,16.10
2018-08-06T09:07:23.168Z,15.80
2018-08-06T09:09:50.812Z,16.17
2018-08-06T09:12:18.953Z,15.70
2018-08-06T09:14:46.548Z,15.70
2018-08-06T09:17:15.561Z,16.13
2018-08-06T09:20:00.786Z,15.20
2018-08-06T09:22:29.157Z,15.73
2018-08-06T09:24:56.761Z,14.80
2018-08-06T09:27:24.491Z,15.23
2018-08-06T09:29:52.066Z,15.93
2018-08-06T09:32:19.655Z,16.40
2018-08-06T09:34:47.252Z,16.33
2018-08-06T09:37:14.863Z,14.93
2018-08-06T09:39:42.468Z,15.80
2018-08-06T09:42:10.080Z,16.80
2018-08-06T09:44:37.724Z,15.63
2018-08-06T09:47:05.347Z,17.17
2018-08-06T09:49:32.918Z,17.70
2018-08-06T09:52:00.619Z,18.47
2018-08-06T09:54:28.265Z,17.60
2018-08-06T09:56:57.806Z,16.50
2018-08-06T09:59:25.491Z,17.13
2018-08-06T10:01:55.230Z,15.93
2018-08-06T10:04:23.108Z,16.70
2018-08-06T10:06:50.705Z,16.20
2018-08-06T10:09:18.315Z,15.77
2018-08-06T10:11:45.943Z,15.53
2018-08-06T10:14:13.526Z,15.43
2018-08-06T10:16:41.199Z,16.57
2018-08-06T10:19:08.814Z,16.20
2018-08-06T10:21:36.745Z,15.07
2018-08-06T10:24:04.422Z,15.70
2018-08-06T10:26:32.061Z,14.50
2018-08-06T10:28:59.636Z,16.07
2018-08-06T10:31:27.232Z,15.50
2018-08-06T10:33:54.842Z,14.47
2018-08-06T10:36:26.280Z,16.00
2018-08-06T10:38:53.974Z,16.67
2018-08-06T10:41:25.347Z,15.77
2018-08-06T10:43:53.006Z,16.03
2018-08-06T10:46:21.473Z,15.13
2018-08-06T10:48:49.422Z,16.10
2018-08-06T10:51:17.256Z,17.23
2018-08-06T10:53:45.108Z,16.73
2018-08-06T10:56:12.718Z,15.77
2018-08-06T10:58:40.352Z,17.90
2018-08-06T11:01:08.061Z,16.77
2018-08-06T11:03:35.868Z,17.83
2018-08-06T11:06:03.628Z,17.20
2018-08-06T11:08:31.228Z,15.97
2018-08-06T11:10:59.209Z,15.67
2018-08-06T11:13:26.818Z,17.33
2018-08-06T11:15:54.404Z,16.20
2018-08-06T11:18:22.203Z,17.20
2018-08-06T11:20:49.784Z,15.80
2018-08-06T11:23:17.401Z,15.13
2018-08-06T11:25:45.013Z,14.70
2018-08-06T11:28:12.922Z,16.03
2018-08-06T11:30:40.495Z,16.03
2018-08-06T11:33:08.066Z,16.33
2018-08-06T11:35:35.761Z,16.23
2018-08-06T11:38:03.426Z,14.43
2018-08-06T11:40:31.111Z,14.97
2018-08-06T11:42:58.848Z,14.00
2018-08-06T11:45:26.643Z,15.33
2018-08-06T11:47:54.265Z,14.33
2018-08-06T11:50:21.958Z,15.13
2018-08-06T11:52:49.628Z,15.03
2018-08-06T11:55:17.468Z,14.50
2018-08-06T11:57:45.037Z,14.10
2018-08-06T12:00:16.146Z,14.80
2018-08-06T12:02:43.838Z,15.43
2018-08-06T12:05:11.864Z,14.17
2018-08-06T12:07:39.748Z,14.03
2018-08-06T12:10:08.783Z,14.83
2018-08-06T12:12:36.419Z,14.10
2018-08-06T12:15:04.119Z,14.10
2018-08-06T12:17:31.740Z,14.00
2018-08-06T12:19:59.314Z,14.93
2018-08-06T12:22:26.927Z,13.53
2018-08-06T12:24:54.530Z,14.00
2018-08-06T12:27:22.195Z,13.50
2018-08-06T12:29:49.765Z,13.90
2018-08-06T12:32:17.356Z,13.57
2018-08-06T12:34:45.037Z,14.00
2018-08-06T12:37:12.726Z,14.33
2018-08-06T12:39:40.486Z,15.00
2018-08-06T12:42:08.153Z,13.47
2018-08-06T12:44:35.718Z,13.10
2018-08-06T12:47:03.321Z,14.53
2018-08-06T12:49:30.935Z,15.00
2018-08-06T12:51:58.539Z,14.50
2018-08-06T12:54:26.140Z,13.80
2018-08-06T12:56:53.771Z,13.50
2018-08-06T12:59:21.365Z,14.30
2018-08-06T13:01:49.062Z,13.43
2018-08-06T13:04:16.637Z,13.80
2018-08-06T13:06:44.188Z,13.83
2018-08-06T13:09:11.788Z,13.57
2018-08-06T13:11:39.473Z,13.03
2018-08-06T13:14:07.666Z,13.27
2018-08-06T13:16:35.487Z,13.10
2018-08-06T13:19:03.100Z,13.80
2018-08-06T13:21:31.054Z,13.07
2018-08-06T13:23:58.731Z,14.00
2018-08-06T13:26:26.885Z,12.60
2018-08-06T13:28:54.878Z,12.93
2018-08-06T13:31:22.991Z,14.10
2018-08-06T13:33:50.691Z,13.37
2018-08-06T13:36:18.394Z,13.50
2018-08-06T13:38:46.147Z,14.10
2018-08-06T13:41:13.795Z,12.40
2018-08-06T13:43:41.504Z,11.50
2018-08-06T13:46:18.892Z,12.53
2018-08-06T13:48:55.175Z,13.10
2018-08-06T13:51:23.526Z,12.80
2018-08-06T13:53:51.146Z,12.70
2018-08-06T13:56:18.712Z,11.10
2018-08-06T13:58:47.388Z,11.17
2018-08-06T14:01:15.062Z,12.40
2018-08-06T14:03:42.914Z,12.37
2018-08-06T14:06:10.721Z,13.03
2018-08-06T14:08:38.250Z,12.40
2018-08-06T14:11:05.863Z,11.60
2018-08-06T14:13:33.553Z,13.60
2018-08-06T14:16:01.127Z,12.03
2018-08-06T14:18:28.733Z,13.27
2018-08-06T14:20:56.300Z,11.80
2018-08-06T14:23:23.909Z,11.93
2018-08-06T14:25:51.539Z,13.77
2018-08-06T14:28:19.174Z,15.63
2018-08-06T14:30:46.735Z,11.00
2018-08-06T14:33:14.374Z,12.10
2018-08-06T14:35:42.021Z,15.53
2018-08-06T14:38:09.617Z,13.07
2018-08-06T14:40:37.261Z,12.33
2018-08-06T14:43:04.941Z,12.10
2018-08-06T14:45:32.518Z,12.13
2018-08-06T14:48:00.146Z,11.60
2018-08-06T14:50:27.817Z,11.17
2018-08-06T14:52:55.386Z,12.40
2018-08-06T14:55:23.051Z,11.70
2018-08-06T14:57:50.614Z,11.50
2018-08-06T15:00:19.354Z,11.63
2018-08-06T15:02:47.304Z,15.50
2018-08-06T15:05:14.885Z,13.30
2018-08-06T15:07:42.577Z,12.03
2018-08-06T15:10:11.678Z,11.93
2018-08-06T15:12:39.724Z,11.63
2018-08-06T15:15:08.173Z,11.90
2018-08-06T15:17:35.766Z,12.00
2018-08-06T15:20:03.486Z,12.53
2018-08-06T15:22:31.125Z,11.40
2018-08-06T15:24:58.678Z,11.97
2018-08-06T15:27:26.241Z,12.40
2018-08-06T15:29:53.873Z,11.83
2018-08-06T15:32:21.476Z,11.97
2018-08-06T15:34:49.116Z,12.17
2018-08-06T15:37:16.680Z,11.93
2018-08-06T15:39:44.420Z,11.93
2018-08-06T15:42:12.127Z,11.63
2018-08-06T15:44:39.661Z,11.90
2018-08-06T15:47:07.341Z,12.57
2018-08-06T15:49:34.907Z,12.10
2018-08-06T15:52:14.742Z,12.83
2018-08-06T15:54:42.393Z,11.70
2018-08-06T15:57:09.984Z,11.47
2018-08-06T15:59:37.535Z,10.70
2018-08-06T16:02:05.160Z,12.70
2018-08-06T16:04:33.389Z,11.20
2018-08-06T16:07:00.997Z,12.07
2018-08-06T16:09:28.568Z,11.90
2018-08-06T16:11:56.156Z,11.53
2018-08-06T16:14:23.790Z,12.07
2018-08-06T16:16:51.507Z,10.83
2018-08-06T16:19:19.133Z,11.50
2018-08-06T16:21:46.701Z,10.80
2018-08-06T16:24:14.297Z,11.10
2018-08-06T16:26:42.011Z,12.07
2018-08-06T16:29:09.693Z,13.23
2018-08-06T16:31:37.457Z,12.00
2018-08-06T16:34:05.236Z,12.40
2018-08-06T16:36:32.939Z,11.57
2018-08-06T16:39:00.517Z,12.40
2018-08-06T16:41:28.060Z,12.90
2018-08-06T16:43:55.685Z,11.60
2018-08-06T16:46:23.313Z,12.53
2018-08-06T16:48:50.989Z,12.63
2018-08-06T16:51:18.572Z,12.73
2018-08-06T16:53:46.187Z,12.43
2018-08-06T16:56:14.093Z,13.60
2018-08-06T16:58:41.866Z,12.97
2018-08-06T17:01:10.033Z,13.57
2018-08-06T17:03:37.905Z,13.20
2018-08-06T17:06:05.620Z,13.33
2018-08-06T17:08:33.414Z,13.17
2018-08-06T17:11:01.333Z,14.20
2018-08-06T17:13:29.157Z,13.30
2018-08-06T17:15:57.051Z,14.50
2018-08-06T17:18:24.995Z,14.20
2018-08-06T17:20:52.828Z,14.73
2018-08-06T17:23:20.686Z,12.53
2018-08-06T17:25:48.457Z,14.60
2018-08-06T17:28:16.494Z,14.90
2018-08-06T17:30:44.337Z,16.20
2018-08-06T17:33:12.274Z,15.40
2018-08-06T17:35:40.050Z,20.53
2018-08-06T17:38:07.934Z,15.47
2018-08-06T17:40:35.913Z,14.40
2018-08-06T17:43:03.743Z,15.03
2018-08-06T17:45:31.653Z,16.00
2018-08-06T17:47:59.522Z,16.27
2018-08-06T17:50:27.468Z,14.90
2018-08-06T17:52:55.312Z,13.73
2018-08-06T17:55:23.637Z,15.43
2018-08-06T17:57:51.597Z,17.30
2018-08-06T18:00:22.152Z,15.10
2018-08-06T18:02:50.134Z,16.43
2018-08-06T18:05:18.482Z,16.07
2018-08-06T18:07:46.518Z,19.10
2018-08-06T18:10:15.978Z,17.97
2018-08-06T18:12:44.554Z,16.20
2018-08-06T18:15:12.368Z,16.47
2018-08-06T18:17:40.174Z,16.37
2018-08-06T18:20:10.250Z,17.07
2018-08-06T18:22:38.079Z,17.17
2018-08-06T18:25:07.067Z,15.97
2018-08-06T18:27:35.005Z,17.20
2018-08-06T18:30:03.128Z,17.07
2018-08-06T18:32:30.952Z,16.87
2018-08-06T18:34:58.811Z,17.07
2018-08-06T18:37:58.262Z,16.73
2018-08-06T18:40:25.993Z,16.50
2018-08-06T18:42:53.813Z,16.60
2018-08-06T18:45:22.150Z,17.27
2018-08-06T18:47:50.780Z,18.17
2018-08-06T18:50:19.107Z,17.07
2018-08-06T18:52:47.728Z,17.47
2018-08-06T18:55:15.916Z,16.47
2018-08-06T18:57:44.451Z,16.80
2018-08-06T19:00:13.676Z,19.37
2018-08-06T19:02:41.578Z,16.60
2018-08-06T19:05:09.773Z,17.33
2018-08-06T19:07:37.749Z,17.33
2018-08-06T19:10:06.040Z,16.90
2018-08-06T19:12:38.951Z,17.00
2018-08-06T19:15:06.918Z,18.00
2018-08-06T19:17:38.882Z,18.40
2018-08-06T19:20:06.938Z,17.17
2018-08-06T19:22:35.071Z,19.00
2018-08-06T19:25:08.273Z,18.37
2018-08-06T19:27:36.178Z,18.33
2018-08-06T19:30:05.076Z,18.40
2018-08-06T19:32:33.006Z,17.63
2018-08-06T19:35:00.891Z,18.57
2018-08-06T19:37:33.751Z,19.27
2018-08-06T19:40:01.671Z,18.40
2018-08-06T19:42:33.574Z,17.30
2018-08-06T19:45:01.477Z,18.83
2018-08-06T19:47:29.294Z,17.37
2018-08-06T19:50:27.773Z,19.50
2018-08-06T19:52:55.700Z,18.83
2018-08-06T19:55:29.019Z,17.70
2018-08-06T19:57:56.917Z,18.10
2018-08-06T20:00:24.808Z,18.27
2018-08-06T20:02:52.817Z,17.70
2018-08-06T20:05:20.630Z,17.47
2018-08-06T20:07:48.569Z,17.97
2018-08-06T20:10:16.395Z,19.50
2018-08-06T20:12:44.204Z,19.87
2018-08-06T20:15:14.265Z,18.60
2018-08-06T20:17:42.148Z,18.30
2018-08-06T20:20:10.692Z,18.17
2018-08-06T20:22:38.483Z,19.53
2018-08-06T20:25:07.550Z,19.97
2018-08-06T20:27:35.389Z,19.17
2018-08-06T20:30:03.192Z,19.17
2018-08-06T20:32:31.192Z,20.00
2018-08-06T20:34:59.058Z,18.63
2018-08-06T20:37:26.907Z,20.70
2018-08-06T20:39:54.775Z,19.20
2018-08-06T20:42:22.582Z,19.67
2018-08-06T20:44:50.414Z,19.50
2018-08-06T20:47:18.397Z,19.70
2018-08-06T20:49:46.239Z,18.60
2018-08-06T20:52:14.155Z,20.10
2018-08-06T20:54:41.993Z,19.10
2018-08-06T20:57:09.849Z,20.60
2018-08-06T20:59:37.727Z,19.60
2018-08-06T21:02:05.598Z,19.23
2018-08-06T21:04:34.059Z,20.27
2018-08-06T21:07:01.960Z,20.43
2018-08-06T21:09:29.641Z,19.43
2018-08-06T21:11:59.228Z,20.60
2018-08-06T21:14:26.846Z,21.80
2018-08-06T21:16:54.500Z,19.40
2018-08-06T21:19:22.125Z,21.50
2018-08-06T21:21:53.070Z,21.17
2018-08-06T21:24:20.682Z,20.17
2018-08-06T21:26:49.511Z,20.10
2018-08-06T21:29:17.123Z,19.73
2018-08-06T21:31:44.927Z,22.17
2018-08-06T21:34:12.541Z,20.07
2018-08-06T21:36:40.906Z,19.87
2018-08-06T21:39:09.537Z,22.80
2018-08-06T21:41:37.102Z,20.50
2018-08-06T21:44:05.050Z,20.70
2018-08-06T21:46:32.713Z,19.47
2018-08-06T21:49:00.361Z,20.90
2018-08-06T21:51:28.043Z,20.87
2018-08-06T21:53:55.810Z,20.67
2018-08-06T21:56:23.395Z,21.43
2018-08-06T21:58:51.013Z,20.87
2018-08-06T22:01:18.669Z,20.60
2018-08-06T22:03:46.266Z,20.00
2018-08-06T22:06:13.897Z,22.87
2018-08-06T22:08:41.462Z,21.30
2018-08-06T22:11:09.067Z,21.77
2018-08-06T22:13:36.675Z,22.37
2018-08-06T22:16:04.352Z,22.37
2018-08-06T22:18:31.940Z,20.47
2018-08-06T22:20:59.561Z,21.40
2018-08-06T22:23:27.190Z,21.67
2018-08-06T22:25:54.841Z,22.20
2018-08-06T22:28:22.440Z,21.53
2018-08-06T22:30:50.039Z,22.30
2018-08-06T22:33:17.682Z,21.87
2018-08-06T22:35:45.355Z,22.70
2018-08-06T22:38:12.940Z,22.10
2018-08-06T22:40:40.556Z,19.73
2018-08-06T22:43:08.237Z,20.40
2018-08-06T22:45:36.329Z,21.53
2018-08-06T22:48:03.978Z,21.67
2018-08-06T22:50:31.525Z,22.60
2018-08-06T22:52:59.075Z,21.73
2018-08-06T22:55:26.691Z,22.10
2018-08-06T22:57:54.295Z,22.60
2018-08-06T23:00:21.942Z,23.10
2018-08-06T23:02:49.564Z,21.53
2018-08-06T23:05:17.417Z,22.30
2018-08-06T23:07:45.090Z,21.37
2018-08-06T23:10:13.259Z,22.97
2018-08-06T23:12:40.879Z,22.07
2018-08-06T23:15:11.359Z,23.27
2018-08-06T23:17:38.967Z,23.20
2018-08-06T23:20:07.357Z,21.70
2018-08-06T23:22:35.038Z,23.60
2018-08-06T23:25:02.924Z,21.90
2018-08-06T23:27:30.493Z,22.43
2018-08-06T23:29:58.107Z,22.63
2018-08-06T23:32:25.769Z,23.50
2018-08-06T23:34:53.336Z,24.23
2018-08-06T23:37:20.930Z,21.90
2018-08-06T23:39:48.534Z,21.70
2018-08-06T23:42:16.160Z,23.63
2018-08-06T23:44:43.742Z,23.10
2018-08-06T23:47:11.345Z,27.07
2018-08-06T23:49:38.933Z,22.17
2018-08-06T23:52:06.584Z,22.47
2018-08-06T23:54:34.245Z,23.20
2018-08-06T23:57:01.885Z,23.43
2018-08-06T23:59:29.469Z,23.03
